• Join FlightAware (Why Join?)
  • Login
  • US Flag 
03:16PM EDT


 

Airport Tracker/Info


-or-


 

Live Flight TrackerFlight Track Log ✈ N89539 ✈ 15-Jun-2013 ✈ KLZU - KMBT

Flight Track Log - Related Links

Times and Time Zones

All times are in EDT time to prevent confusion due to time zone crossing. See the N89539 flight status page for this flight to view local times or setup timezone preferences in your user account.

Time Position Orientation Groundspeed Altitude Reporting Facility
EDT Latitude Longitude Course Direction KTS MPH feet Rate Location/Type
04:30PM 34.3167 -84.0333 329° Northwest 105 121 5,800  Level Atlanta TRACON
04:31PM 34.3556 -84.0614 329° Northwest 122 140 5,600 -120 Descending Atlanta Center
04:32PM 34.3808 -84.0664 351° North 107 123 5,600 -60 Level Atlanta Center
04:33PM 34.4078 -84.0564 17° North 98 113 5,500 -240 Descending Atlanta Center
04:34PM 34.4350 -84.0614 351° North 98 113 5,200 -360 Descending Atlanta Center
04:35PM 34.4558 -84.0842 318° Northwest 98 113 4,800 -60 Descending Atlanta Center
04:36PM 34.4725 -84.1067 312° West 93 107 5,100 240 Climbing Atlanta Center
04:37PM 34.4872 -84.1319 305° West 93 107 5,300 120 Climbing Atlanta Center
04:38PM 34.5058 -84.1547 315° West 93 107 5,400  Climbing Atlanta Center
04:39PM 34.5225 -84.1775 312° West 93 107 5,400  Level Atlanta Center
04:40PM 34.5392 -84.2028 309° West 98 113 5,400 -120 Level Atlanta Center
04:41PM 34.5558 -84.2281 309° West 98 113 5,200 -180 Descending Atlanta Center
04:42PM 34.5747 -84.2583 307° West 111 128 5,100 -120 Descending Atlanta Center
04:43PM 34.5872 -84.2886 297° West 106 122 5,000 -180 Descending Atlanta Center
04:44PM 34.5994 -84.3189 296° West 97 112 4,800 -120 Descending Atlanta Center
04:45PM 34.6100 -84.3492 293° West 102 117 4,800 60 Level Atlanta Center
04:46PM 34.6181 -84.3819 287° West 102 117 5,000 180 Climbing Atlanta Center
04:47PM 34.6244 -84.4122 284° West 102 117 5,200 120 Climbing Atlanta Center
04:48PM 34.6325 -84.4478 285° West 102 117 5,300 60 Climbing Atlanta Center
04:49PM 34.6450 -84.4731 301° West 102 117 5,400 60 Climbing Atlanta Center
04:50PM 34.6553 -84.5033 292° West 97 112 5,500  Climbing Atlanta Center
04:51PM 34.6678 -84.5364 295° West 91 105 5,500 -120 Level Atlanta Center
04:52PM 34.6758 -84.5692 287° West 102 117 5,300 -300 Descending Atlanta Center
04:53PM 34.6861 -84.6047 289° West 102 117 5,000 -300 Descending Atlanta Center
04:54PM 34.7006 -84.6350 300° West 107 123 4,800 -180 Descending Atlanta Center
04:55PM 34.7131 -84.6656 296° West 107 123 4,700 -240 Descending Atlanta Center
04:56PM 34.7297 -84.6933 306° West 107 123 4,400 -300 Descending Atlanta Center
04:57PM 34.7461 -84.7239 303° West 107 123 4,100 -300 Descending Atlanta Center
04:58PM 34.7564 -84.7542 292° West 107 123 3,900 -180 Descending Atlanta Center
04:59PM 34.7667 -84.7847 292° West 102 117 3,800  Descending Atlanta Center
05:00PM 34.7831 -84.8128 305° West 102 117 3,900 60 Climbing Atlanta Center
05:01PM 34.8039 -84.8356 318° Northwest 102 117 4,000 120 Climbing Atlanta Center
05:02PM 34.8206 -84.8586 311° West 102 117 4,200 240 Climbing Atlanta Center
05:03PM 34.8350 -84.8839 305° West 102 117 4,500 300 Climbing Atlanta Center
05:04PM 34.8514 -84.9069 311° West 102 117 4,800 120 Climbing Atlanta Center
05:05PM 34.8722 -84.9300 318° Northwest 102 117 4,800 -120 Level Atlanta Center
05:06PM 34.8886 -84.9528 311° West 102 117 4,600 -180 Descending Atlanta Center
05:07PM 34.9031 -84.9858 298° West 102 117 4,500 -60 Descending Atlanta Center
05:08PM 34.9217 -85.0117 311° West 108 124 4,500 -60 Level Atlanta Center
05:09PM 34.9422 -85.0344 318° Northwest 103 119 4,400  Descending Atlanta Center
05:10PM 34.9631 -85.0575 318° Northwest 103 119 4,500  Climbing Atlanta Center
05:12PM 35.0106 -85.1166 314° West  Level FlightAware Approximate
05:19PM 35.2371 -85.3999 314° West  Level FlightAware Approximate
05:19PM 35.1089 -85.3033 307° West 95 109 4,400  Level Memphis Center
05:20PM 35.2694 -85.4405 314° West  Level FlightAware Approximate
05:20PM 35.1247 -85.3331 303° West 95 109 4,400  Level Memphis Center
05:21PM 35.3016 -85.4811 314° West  Level FlightAware Approximate
05:21PM 35.1383 -85.3650 298° West 95 109 4,300  Level Memphis Center
05:22PM 35.3336 -85.5226 313° West  Level FlightAware Approximate
05:22PM 35.1519 -85.3922 301° West 100 115 4,200  Level Memphis Center
05:23PM 35.3650 -85.5643 313° West  Level FlightAware Approximate
05:23PM 35.1700 -85.4242 305° West 100 115 4,200  Level Memphis Center
05:24PM 35.3963 -85.6061 313° West  Level FlightAware Approximate
05:24PM 35.1878 -85.4511 309° West 100 115 4,200  Level Memphis Center
05:25PM 35.4265 -85.6491 307° West  Level FlightAware Approximate
05:25PM 35.2078 -85.4831 307° West 100 115 4,000  Level Memphis Center
05:26PM 35.2236 -85.5150 301° West 100 115 6,500 1,200 Climbing Memphis Center
05:27PM 35.2369 -85.5397 303° West 100 115 6,500 -1,200 Level Memphis Center
05:28PM 35.2547 -85.5617 315° West 135 155 4,200 -1,140 Descending Memphis Center
05:29PM 35.2764 -85.5858 318° Northwest 110 127 4,300  Climbing Memphis Center
05:30PM 35.2944 -85.6178 305° West 105 121 4,200 -60 Descending Memphis Center
05:31PM 35.3200 -85.6317 336° Northwest 105 121 4,200 -60 Level Memphis Center
05:32PM 35.3375 -85.6536 314° West 99 114 4,100  Descending Memphis Center
05:33PM 35.3550 -85.6781 311° West 99 114 4,300  Climbing Memphis Center
05:34PM 35.3789 -85.7047 318° Northwest 99 114 4,200 1,080 Descending Memphis Center
05:35PM 35.4008 -85.7289 318° Northwest 99 114 6,500 1,140 Climbing Memphis Center
05:36PM 35.4225 -85.7531 318° Northwest 99 114 6,500  Level Memphis Center
05:37PM 35.4336 -85.7703 308° West 99 114 6,500 -1,200 Level Memphis Center
05:38PM 35.4533 -85.7947 315° West 146 168 4,100 -1,320 Descending Memphis Center
05:39PM 35.4689 -85.8244 303° West 117 135 3,900 -60 Descending Memphis Center
05:40PM 35.4864 -85.8492 311° West 107 123 4,000 60 Climbing Memphis Center
05:41PM 35.5061 -85.8736 315° West 101 116 4,100  Climbing Memphis Center
05:42PM 35.5178 -85.9033 296° West 101 116 4,000 -120 Descending Memphis Center
05:43PM 35.5333 -85.9308 305° West 101 116 3,900  Descending Memphis Center
05:44PM 35.5467 -85.9606 299° West 96 110 4,100  Climbing Memphis Center
05:45PM 35.5622 -85.9878 305° West 96 110 3,900  Descending Memphis Center
05:46PM 35.5800 -86.0150 309° West 96 110 4,100  Climbing Memphis Center
05:47PM 35.5975 -86.0394 311° West 96 110 4,000 -120 Descending Memphis Center
05:48PM 35.6153 -86.0667 309° West 96 110 3,900 -60 Descending Memphis Center
05:49PM 35.6328 -86.0964 306° West 104 120 3,900  Level Memphis Center
05:50PM 35.6483 -86.1239 305° West 97 112 3,900  Level Memphis Center
05:52PM 35.6838 -86.1632 318° Northwest  Level FlightAware Approximate
05:59PM 35.8667 -86.3667 313° West  Level FlightAware Approximate
06:00PM 35.8775 -86.3775 313° West  Level Estimated
06:01PM 35.8775 -86.3775 313° West  Level Estimated
06:02PM 35.8775 -86.3775 313° West  Level Estimated
06:03PM 35.8775 -86.3775 313° West  Level Estimated
06:04PM 35.8775 -86.3775 313° West  Level Estimated
06:05PM 35.8775 -86.3775 313° West  Level Estimated
06:06PM 35.8775 -86.3775 313° West  Level Estimated
06:07PM 35.8775 -86.3775 313° West  Level Estimated
06:08PM 35.8775 -86.3775 313° West  Level Estimated
06:09PM 35.8775 -86.3775 313° West  Level Estimated
06:10PM 35.8775 -86.3775 313° West  Level Estimated
06:11PM 35.8775 -86.3775 313° West  Level Estimated